Estación Meteorológica Peña el Pijo (Robertgarden) [ 10/16/18 13:36:25 CEST ]

Fecha Hora Presion(HPa) Temp (°C) Humedad % Rocio (°C) Viento ( m/s) Direccion Lluvia 1Hora(mm) Lluvia 24H(mm) LLuvia Total(mm)
2018-Oct-05 01:01:53 1012.700 9.9 78 6.2         356.38
2018-Oct-05 02:01:43 1012.500 9.1 80 5.8         356.38
2018-Oct-05 03:01:43 1012.300 8.7 82 5.8         356.38
2018-Oct-05 04:09:02 1011.500 8.6 82 5.7         356.38
2018-Oct-05 05:02:07 1011.000 7.9 83 5.2         356.38
2018-Oct-05 06:01:51 1010.700 7.9 84 5.4         356.38
2018-Oct-05 07:01:48 1011.000 7.2 85 4.8         356.38
2018-Oct-05 08:01:46 1010.900 6.6 85 4.2         356.38
2018-Oct-05 09:01:47 1011.000 6.9 86 4.7         0.00
2018-Oct-05 10:01:51 1011.400 13.6 85 11.1         0.00
2018-Oct-05 11:01:49 1011.300 21.4 55 12.0         0.00
2018-Oct-05 12:01:44 1011.000 26.3 40 11.7         0.00
2018-Oct-05 13:01:48 1010.500 27.1 34 9.8         0.00
2018-Oct-05 14:01:43 1010.000 26.5 30 7.5         0.00
2018-Oct-05 15:02:00 1009.400 27.7 27 6.8 0.7 SSW     0.00
2018-Oct-05 16:01:48 1009.200 27.3 34 10.0 0.5 WNW     0.00
2018-Oct-05 17:01:41 1009.000 25.8 35 9.1         0.00
2018-Oct-05 18:01:35 1009.100 21.4 44 8.6         0.00
2018-Oct-05 19:01:46 1009.000 20.9 46 8.8         0.00
2018-Oct-05 20:01:48 1009.500 18.0 55 8.8         0.00
2018-Oct-05 21:01:44 1009.800 14.8 63 7.8         0.00
2018-Oct-05 22:01:42 1010.400 12.7 69 7.2         0.00
2018-Oct-05 23:01:58 1010.900 11.4 75 7.1         0.00

Temperatura Máxima:27°    Temperatura Mínima:
Presión Máxima:1012.700 Hpa    Presión Mínima:1009.000 Hpa


Volver